sensor_id;sensor_type;location;lat;lon;timestamp;P1;durP1;ratioP1;P2;durP2;ratioP2
74457;SDS011;62896;51.032;3.712;2023-02-15T00:02:12;104.6;;;50.2;;
74457;SDS011;62896;51.032;3.712;2023-02-15T00:05:32;104.6;;;50.2;;
74457;SDS011;62896;51.032;3.712;2023-02-15T00:08:53;104.6;;;50.2;;
74457;SDS011;62896;51.032;3.712;2023-02-15T00:12:12;104.6;;;50.2;;
74457;SDS011;62896;51.032;3.712;2023-02-15T00:15:32;104.6;;;50.2;;
74457;SDS011;62896;51.032;3.712;2023-02-15T00:18:52;104.6;;;50.2;;
74457;SDS011;62896;51.032;3.712;2023-02-15T00:22:12;93.9;;;50.5;;
74457;SDS011;62896;51.032;3.712;2023-02-15T00:25:32;93.9;;;50.5;;
74457;SDS011;62896;51.032;3.712;2023-02-15T00:28:52;93.9;;;50.5;;
74457;SDS011;62896;51.032;3.712;2023-02-15T00:32:12;93.9;;;50.5;;
74457;SDS011;62896;51.032;3.712;2023-02-15T00:35:32;93.9;;;50.5;;
74457;SDS011;62896;51.032;3.712;2023-02-15T00:38:52;93.9;;;50.5;;
74457;SDS011;62896;51.032;3.712;2023-02-15T00:42:12;93.9;;;50.5;;
74457;SDS011;62896;51.032;3.712;2023-02-15T00:45:32;93.9;;;50.5;;
74457;SDS011;62896;51.032;3.712;2023-02-15T00:48:52;81.3;;;46.8;;
74457;SDS011;62896;51.032;3.712;2023-02-15T00:52:12;81.3;;;46.8;;
74457;SDS011;62896;51.032;3.712;2023-02-15T00:55:32;81.3;;;46.8;;
74457;SDS011;62896;51.032;3.712;2023-02-15T00:58:52;81.3;;;46.8;;
74457;SDS011;62896;51.032;3.712;2023-02-15T01:02:12;81.3;;;46.8;;
74457;SDS011;62896;51.032;3.712;2023-02-15T01:05:32;81.3;;;46.8;;
74457;SDS011;62896;51.032;3.712;2023-02-15T01:08:52;81.3;;;46.8;;
74457;SDS011;62896;51.032;3.712;2023-02-15T01:12:12;90.1;;;47.8;;
74457;SDS011;62896;51.032;3.712;2023-02-15T01:15:33;90.1;;;47.8;;
74457;SDS011;62896;51.032;3.712;2023-02-15T01:18:52;90.1;;;47.8;;
74457;SDS011;62896;51.032;3.712;2023-02-15T01:22:12;90.1;;;47.8;;
74457;SDS011;62896;51.032;3.712;2023-02-15T01:25:32;90.1;;;47.8;;
74457;SDS011;62896;51.032;3.712;2023-02-15T01:28:52;90.1;;;47.8;;
74457;SDS011;62896;51.032;3.712;2023-02-15T01:32:12;90.1;;;47.8;;
74457;SDS011;62896;51.032;3.712;2023-02-15T01:35:32;90.1;;;47.8;;
74457;SDS011;62896;51.032;3.712;2023-02-15T01:38:52;100.7;;;51.6;;
74457;SDS011;62896;51.032;3.712;2023-02-15T01:42:12;100.7;;;51.6;;
74457;SDS011;62896;51.032;3.712;2023-02-15T01:45:32;100.7;;;51.6;;
74457;SDS011;62896;51.032;3.712;2023-02-15T01:48:54;100.7;;;51.6;;
74457;SDS011;62896;51.032;3.712;2023-02-15T01:52:12;100.7;;;51.6;;
74457;SDS011;62896;51.032;3.712;2023-02-15T01:55:32;100.7;;;51.6;;
74457;SDS011;62896;51.032;3.712;2023-02-15T01:58:52;100.7;;;51.6;;
74457;SDS011;62896;51.032;3.712;2023-02-15T02:02:13;96;;;50.1;;
74457;SDS011;62896;51.032;3.712;2023-02-15T02:05:32;96;;;50.1;;
74457;SDS011;62896;51.032;3.712;2023-02-15T02:08:52;96;;;50.1;;
74457;SDS011;62896;51.032;3.712;2023-02-15T02:12:12;96;;;50.1;;
74457;SDS011;62896;51.032;3.712;2023-02-15T02:15:33;96;;;50.1;;
74457;SDS011;62896;51.032;3.712;2023-02-15T02:18:56;96;;;50.1;;
74457;SDS011;62896;51.032;3.712;2023-02-15T02:22:20;96;;;50.1;;
74457;SDS011;62896;51.032;3.712;2023-02-15T02:25:44;96;;;50.1;;
74457;SDS011;62896;51.032;3.712;2023-02-15T02:30:02;85.4;;;48.6;;
74457;SDS011;62896;51.032;3.712;2023-02-15T02:32:48;85.4;;;48.6;;
74457;SDS011;62896;51.032;3.712;2023-02-15T02:35:33;85.4;;;48.6;;
74457;SDS011;62896;51.032;3.712;2023-02-15T02:38:55;85.4;;;48.6;;
74457;SDS011;62896;51.032;3.712;2023-02-15T02:42:12;85.4;;;48.6;;
74457;SDS011;62896;51.032;3.712;2023-02-15T02:45:33;85.4;;;48.6;;
74457;SDS011;62896;51.032;3.712;2023-02-15T02:48:52;85.4;;;48.6;;
74457;SDS011;62896;51.032;3.712;2023-02-15T02:52:44;91.3;;;50.5;;
74457;SDS011;62896;51.032;3.712;2023-02-15T02:55:33;91.3;;;50.5;;
74457;SDS011;62896;51.032;3.712;2023-02-15T02:58:54;91.3;;;50.5;;
74457;SDS011;62896;51.032;3.712;2023-02-15T03:02:13;91.3;;;50.5;;
74457;SDS011;62896;51.032;3.712;2023-02-15T03:05:32;91.3;;;50.5;;
74457;SDS011;62896;51.032;3.712;2023-02-15T03:08:53;91.3;;;50.5;;
74457;SDS011;62896;51.032;3.712;2023-02-15T03:12:13;91.3;;;50.5;;
74457;SDS011;62896;51.032;3.712;2023-02-15T03:15:33;91.3;;;50.5;;
74457;SDS011;62896;51.032;3.712;2023-02-15T03:18:53;92.7;;;51.8;;
74457;SDS011;62896;51.032;3.712;2023-02-15T03:22:13;92.7;;;51.8;;
74457;SDS011;62896;51.032;3.712;2023-02-15T03:25:32;92.7;;;51.8;;
74457;SDS011;62896;51.032;3.712;2023-02-15T03:28:52;92.7;;;51.8;;
74457;SDS011;62896;51.032;3.712;2023-02-15T03:32:12;92.7;;;51.8;;
74457;SDS011;62896;51.032;3.712;2023-02-15T03:35:33;92.7;;;51.8;;
74457;SDS011;62896;51.032;3.712;2023-02-15T03:38:53;92.7;;;51.8;;
74457;SDS011;62896;51.032;3.712;2023-02-15T03:42:13;94;;;51.6;;
74457;SDS011;62896;51.032;3.712;2023-02-15T03:45:32;94;;;51.6;;
74457;SDS011;62896;51.032;3.712;2023-02-15T03:48:52;94;;;51.6;;
74457;SDS011;62896;51.032;3.712;2023-02-15T03:52:12;94;;;51.6;;
74457;SDS011;62896;51.032;3.712;2023-02-15T03:55:33;94;;;51.6;;
74457;SDS011;62896;51.032;3.712;2023-02-15T03:58:52;94;;;51.6;;
74457;SDS011;62896;51.032;3.712;2023-02-15T04:02:14;94;;;51.6;;
74457;SDS011;62896;51.032;3.712;2023-02-15T04:05:32;94;;;51.6;;
74457;SDS011;62896;51.032;3.712;2023-02-15T04:08:52;95.3;;;51.4;;
74457;SDS011;62896;51.032;3.712;2023-02-15T04:12:12;95.3;;;51.4;;
74457;SDS011;62896;51.032;3.712;2023-02-15T04:15:32;95.3;;;51.4;;
74457;SDS011;62896;51.032;3.712;2023-02-15T04:18:52;95.3;;;51.4;;
74457;SDS011;62896;51.032;3.712;2023-02-15T04:22:12;95.3;;;51.4;;
74457;SDS011;62896;51.032;3.712;2023-02-15T04:25:32;95.3;;;51.4;;
74457;SDS011;62896;51.032;3.712;2023-02-15T04:28:52;95.3;;;51.4;;
74457;SDS011;62896;51.032;3.712;2023-02-15T04:32:12;93.8;;;49.4;;
74457;SDS011;62896;51.032;3.712;2023-02-15T04:35:32;93.8;;;49.4;;
74457;SDS011;62896;51.032;3.712;2023-02-15T04:38:52;93.8;;;49.4;;
74457;SDS011;62896;51.032;3.712;2023-02-15T04:42:12;93.8;;;49.4;;
74457;SDS011;62896;51.032;3.712;2023-02-15T04:45:32;93.8;;;49.4;;
74457;SDS011;62896;51.032;3.712;2023-02-15T04:48:52;93.8;;;49.4;;
74457;SDS011;62896;51.032;3.712;2023-02-15T04:52:12;93.8;;;49.4;;
74457;SDS011;62896;51.032;3.712;2023-02-15T04:55:32;93.8;;;49.4;;
74457;SDS011;62896;51.032;3.712;2023-02-15T04:58:52;93;;;47.5;;
74457;SDS011;62896;51.032;3.712;2023-02-15T05:02:12;93;;;47.5;;
74457;SDS011;62896;51.032;3.712;2023-02-15T05:05:32;93;;;47.5;;
74457;SDS011;62896;51.032;3.712;2023-02-15T05:08:52;93;;;47.5;;
74457;SDS011;62896;51.032;3.712;2023-02-15T05:12:12;93;;;47.5;;
74457;SDS011;62896;51.032;3.712;2023-02-15T05:15:32;93;;;47.5;;
74457;SDS011;62896;51.032;3.712;2023-02-15T05:18:52;93;;;47.5;;
74457;SDS011;62896;51.032;3.712;2023-02-15T05:22:12;85.7;;;45.6;;
74457;SDS011;62896;51.032;3.712;2023-02-15T05:25:32;85.7;;;45.6;;
74457;SDS011;62896;51.032;3.712;2023-02-15T05:28:52;85.7;;;45.6;;
74457;SDS011;62896;51.032;3.712;2023-02-15T05:32:12;85.7;;;45.6;;
74457;SDS011;62896;51.032;3.712;2023-02-15T05:35:32;85.7;;;45.6;;
74457;SDS011;62896;51.032;3.712;2023-02-15T05:38:52;85.7;;;45.6;;
74457;SDS011;62896;51.032;3.712;2023-02-15T05:42:12;85.7;;;45.6;;
74457;SDS011;62896;51.032;3.712;2023-02-15T05:45:32;85.7;;;45.6;;
74457;SDS011;62896;51.032;3.712;2023-02-15T05:48:52;88;;;44.4;;
74457;SDS011;62896;51.032;3.712;2023-02-15T05:52:12;88;;;44.4;;
74457;SDS011;62896;51.032;3.712;2023-02-15T05:55:32;88;;;44.4;;
74457;SDS011;62896;51.032;3.712;2023-02-15T05:58:52;88;;;44.4;;
74457;SDS011;62896;51.032;3.712;2023-02-15T06:02:12;88;;;44.4;;
74457;SDS011;62896;51.032;3.712;2023-02-15T06:05:32;88;;;44.4;;
74457;SDS011;62896;51.032;3.712;2023-02-15T06:08:52;88;;;44.4;;
74457;SDS011;62896;51.032;3.712;2023-02-15T06:12:12;79.5;;;41.5;;
74457;SDS011;62896;51.032;3.712;2023-02-15T06:15:32;79.5;;;41.5;;
74457;SDS011;62896;51.032;3.712;2023-02-15T06:18:52;79.5;;;41.5;;
74457;SDS011;62896;51.032;3.712;2023-02-15T06:22:12;79.5;;;41.5;;
74457;SDS011;62896;51.032;3.712;2023-02-15T06:25:32;79.5;;;41.5;;
74457;SDS011;62896;51.032;3.712;2023-02-15T06:28:52;79.5;;;41.5;;
74457;SDS011;62896;51.032;3.712;2023-02-15T06:32:12;79.5;;;41.5;;
74457;SDS011;62896;51.032;3.712;2023-02-15T06:35:32;79.5;;;41.5;;
74457;SDS011;62896;51.032;3.712;2023-02-15T06:38:52;83.2;;;39.6;;
74457;SDS011;62896;51.032;3.712;2023-02-15T06:42:12;83.2;;;39.6;;
74457;SDS011;62896;51.032;3.712;2023-02-15T06:45:32;83.2;;;39.6;;
74457;SDS011;62896;51.032;3.712;2023-02-15T06:48:52;83.2;;;39.6;;
74457;SDS011;62896;51.032;3.712;2023-02-15T06:52:12;83.2;;;39.6;;
74457;SDS011;62896;51.032;3.712;2023-02-15T06:55:32;83.2;;;39.6;;
74457;SDS011;62896;51.032;3.712;2023-02-15T06:58:52;83.2;;;39.6;;
74457;SDS011;62896;51.032;3.712;2023-02-15T07:02:12;70.5;;;36.6;;
74457;SDS011;62896;51.032;3.712;2023-02-15T07:05:32;70.5;;;36.6;;
74457;SDS011;62896;51.032;3.712;2023-02-15T07:08:52;70.5;;;36.6;;
74457;SDS011;62896;51.032;3.712;2023-02-15T07:12:12;70.5;;;36.6;;
74457;SDS011;62896;51.032;3.712;2023-02-15T07:15:32;70.5;;;36.6;;
74457;SDS011;62896;51.032;3.712;2023-02-15T07:18:52;70.5;;;36.6;;
74457;SDS011;62896;51.032;3.712;2023-02-15T07:22:12;70.5;;;36.6;;
74457;SDS011;62896;51.032;3.712;2023-02-15T07:25:32;70.5;;;36.6;;
74457;SDS011;62896;51.032;3.712;2023-02-15T07:28:52;66.4;;;35.9;;
74457;SDS011;62896;51.032;3.712;2023-02-15T07:32:12;66.4;;;35.9;;
74457;SDS011;62896;51.032;3.712;2023-02-15T07:35:32;66.4;;;35.9;;
74457;SDS011;62896;51.032;3.712;2023-02-15T07:38:52;66.4;;;35.9;;
74457;SDS011;62896;51.032;3.712;2023-02-15T07:42:12;66.4;;;35.9;;
74457;SDS011;62896;51.032;3.712;2023-02-15T07:45:32;66.4;;;35.9;;
74457;SDS011;62896;51.032;3.712;2023-02-15T07:48:52;66.4;;;35.9;;
74457;SDS011;62896;51.032;3.712;2023-02-15T07:52:12;75.1;;;38.2;;
74457;SDS011;62896;51.032;3.712;2023-02-15T07:55:32;75.1;;;38.2;;
74457;SDS011;62896;51.032;3.712;2023-02-15T07:58:52;75.1;;;38.2;;
74457;SDS011;62896;51.032;3.712;2023-02-15T08:02:12;75.1;;;38.2;;
74457;SDS011;62896;51.032;3.712;2023-02-15T08:05:32;75.1;;;38.2;;
74457;SDS011;62896;51.032;3.712;2023-02-15T08:08:52;75.1;;;38.2;;
74457;SDS011;62896;51.032;3.712;2023-02-15T08:12:12;75.1;;;38.2;;
74457;SDS011;62896;51.032;3.712;2023-02-15T08:15:32;75.1;;;38.2;;
74457;SDS011;62896;51.032;3.712;2023-02-15T08:18:52;76.3;;;38.3;;
74457;SDS011;62896;51.032;3.712;2023-02-15T08:22:13;76.3;;;38.3;;
74457;SDS011;62896;51.032;3.712;2023-02-15T08:25:32;76.3;;;38.3;;
74457;SDS011;62896;51.032;3.712;2023-02-15T08:28:52;76.3;;;38.3;;
74457;SDS011;62896;51.032;3.712;2023-02-15T08:32:12;76.3;;;38.3;;
74457;SDS011;62896;51.032;3.712;2023-02-15T08:35:33;76.3;;;38.3;;
74457;SDS011;62896;51.032;3.712;2023-02-15T08:38:52;76.3;;;38.3;;
74457;SDS011;62896;51.032;3.712;2023-02-15T08:42:12;59.9;;;32.8;;
74457;SDS011;62896;51.032;3.712;2023-02-15T08:45:32;59.9;;;32.8;;
74457;SDS011;62896;51.032;3.712;2023-02-15T08:48:52;59.9;;;32.8;;
74457;SDS011;62896;51.032;3.712;2023-02-15T08:52:12;59.9;;;32.8;;
74457;SDS011;62896;51.032;3.712;2023-02-15T08:55:32;59.9;;;32.8;;
74457;SDS011;62896;51.032;3.712;2023-02-15T08:58:52;59.9;;;32.8;;
74457;SDS011;62896;51.032;3.712;2023-02-15T09:02:12;59.9;;;32.8;;
74457;SDS011;62896;51.032;3.712;2023-02-15T09:05:32;59.9;;;32.8;;
74457;SDS011;62896;51.032;3.712;2023-02-15T09:08:52;53.3;;;29.1;;
74457;SDS011;62896;51.032;3.712;2023-02-15T09:12:12;53.3;;;29.1;;
74457;SDS011;62896;51.032;3.712;2023-02-15T09:15:32;53.3;;;29.1;;
74457;SDS011;62896;51.032;3.712;2023-02-15T09:18:52;53.3;;;29.1;;
74457;SDS011;62896;51.032;3.712;2023-02-15T09:22:12;53.3;;;29.1;;
74457;SDS011;62896;51.032;3.712;2023-02-15T09:25:33;53.3;;;29.1;;
74457;SDS011;62896;51.032;3.712;2023-02-15T09:28:53;53.3;;;29.1;;
74457;SDS011;62896;51.032;3.712;2023-02-15T09:32:13;54.1;;;29.1;;
74457;SDS011;62896;51.032;3.712;2023-02-15T09:35:32;54.1;;;29.1;;
74457;SDS011;62896;51.032;3.712;2023-02-15T09:38:54;54.1;;;29.1;;
74457;SDS011;62896;51.032;3.712;2023-02-15T09:42:16;54.1;;;29.1;;
74457;SDS011;62896;51.032;3.712;2023-02-15T09:45:37;54.1;;;29.1;;
74457;SDS011;62896;51.032;3.712;2023-02-15T09:48:52;54.1;;;29.1;;
74457;SDS011;62896;51.032;3.712;2023-02-15T09:52:17;54.1;;;29.1;;
74457;SDS011;62896;51.032;3.712;2023-02-15T09:55:35;54.1;;;29.1;;
74457;SDS011;62896;51.032;3.712;2023-02-15T09:58:53;46.4;;;26.3;;
74457;SDS011;62896;51.032;3.712;2023-02-15T10:02:17;46.4;;;26.3;;
74457;SDS011;62896;51.032;3.712;2023-02-15T10:05:36;46.4;;;26.3;;
74457;SDS011;62896;51.032;3.712;2023-02-15T10:09:27;46.4;;;26.3;;
74457;SDS011;62896;51.032;3.712;2023-02-15T10:12:18;46.4;;;26.3;;
74457;SDS011;62896;51.032;3.712;2023-02-15T10:15:36;46.4;;;26.3;;
74457;SDS011;62896;51.032;3.712;2023-02-15T10:18:54;46.4;;;26.3;;
74457;SDS011;62896;51.032;3.712;2023-02-15T10:22:16;50.5;;;25.9;;
74457;SDS011;62896;51.032;3.712;2023-02-15T10:25:35;50.5;;;25.9;;
74457;SDS011;62896;51.032;3.712;2023-02-15T10:28:53;50.5;;;25.9;;
74457;SDS011;62896;51.032;3.712;2023-02-15T10:32:15;50.5;;;25.9;;
74457;SDS011;62896;51.032;3.712;2023-02-15T10:35:34;50.5;;;25.9;;
74457;SDS011;62896;51.032;3.712;2023-02-15T10:38:53;50.5;;;25.9;;
74457;SDS011;62896;51.032;3.712;2023-02-15T10:42:15;50.5;;;25.9;;
74457;SDS011;62896;51.032;3.712;2023-02-15T10:45:34;50.5;;;25.9;;
74457;SDS011;62896;51.032;3.712;2023-02-15T10:48:57;46.6;;;25;;
74457;SDS011;62896;51.032;3.712;2023-02-15T10:52:16;46.6;;;25;;
74457;SDS011;62896;51.032;3.712;2023-02-15T10:55:36;46.6;;;25;;
74457;SDS011;62896;51.032;3.712;2023-02-15T10:58:56;46.6;;;25;;
74457;SDS011;62896;51.032;3.712;2023-02-15T11:02:14;46.6;;;25;;
74457;SDS011;62896;51.032;3.712;2023-02-15T11:05:35;46.6;;;25;;
74457;SDS011;62896;51.032;3.712;2023-02-15T11:08:54;46.6;;;25;;
74457;SDS011;62896;51.032;3.712;2023-02-15T11:12:13;44.5;;;25.7;;
74457;SDS011;62896;51.032;3.712;2023-02-15T11:15:33;44.5;;;25.7;;
74457;SDS011;62896;51.032;3.712;2023-02-15T11:18:53;44.5;;;25.7;;
74457;SDS011;62896;51.032;3.712;2023-02-15T11:22:12;44.5;;;25.7;;
74457;SDS011;62896;51.032;3.712;2023-02-15T11:25:33;44.5;;;25.7;;
74457;SDS011;62896;51.032;3.712;2023-02-15T11:28:53;44.5;;;25.7;;
74457;SDS011;62896;51.032;3.712;2023-02-15T11:32:14;44.5;;;25.7;;
74457;SDS011;62896;51.032;3.712;2023-02-15T11:35:33;44.5;;;25.7;;
74457;SDS011;62896;51.032;3.712;2023-02-15T11:38:54;44.6;;;26.1;;
74457;SDS011;62896;51.032;3.712;2023-02-15T11:42:13;44.6;;;26.1;;
74457;SDS011;62896;51.032;3.712;2023-02-15T11:45:33;44.6;;;26.1;;
74457;SDS011;62896;51.032;3.712;2023-02-15T11:48:52;44.6;;;26.1;;
74457;SDS011;62896;51.032;3.712;2023-02-15T11:52:13;44.6;;;26.1;;
74457;SDS011;62896;51.032;3.712;2023-02-15T11:55:32;44.6;;;26.1;;
74457;SDS011;62896;51.032;3.712;2023-02-15T11:58:53;44.6;;;26.1;;
74457;SDS011;62896;51.032;3.712;2023-02-15T12:02:15;44.6;;;26.8;;
74457;SDS011;62896;51.032;3.712;2023-02-15T12:05:32;44.6;;;26.8;;
74457;SDS011;62896;51.032;3.712;2023-02-15T12:08:55;44.6;;;26.8;;
74457;SDS011;62896;51.032;3.712;2023-02-15T12:12:20;44.6;;;26.8;;
74457;SDS011;62896;51.032;3.712;2023-02-15T12:15:32;44.6;;;26.8;;
74457;SDS011;62896;51.032;3.712;2023-02-15T12:18:53;44.6;;;26.8;;
74457;SDS011;62896;51.032;3.712;2023-02-15T12:22:18;44.6;;;26.8;;
74457;SDS011;62896;51.032;3.712;2023-02-15T12:25:33;44.6;;;26.8;;
74457;SDS011;62896;51.032;3.712;2023-02-15T12:28:52;40.9;;;26.1;;
74457;SDS011;62896;51.032;3.712;2023-02-15T12:32:16;40.9;;;26.1;;
74457;SDS011;62896;51.032;3.712;2023-02-15T12:35:33;40.9;;;26.1;;
74457;SDS011;62896;51.032;3.712;2023-02-15T12:39:25;40.9;;;26.1;;
74457;SDS011;62896;51.032;3.712;2023-02-15T12:42:14;40.9;;;26.1;;
74457;SDS011;62896;51.032;3.712;2023-02-15T12:45:33;40.9;;;26.1;;
74457;SDS011;62896;51.032;3.712;2023-02-15T12:49:04;40.9;;;26.1;;
74457;SDS011;62896;51.032;3.712;2023-02-15T12:52:23;44.9;;;27.4;;
74457;SDS011;62896;51.032;3.712;2023-02-15T12:55:32;44.9;;;27.4;;
74457;SDS011;62896;51.032;3.712;2023-02-15T12:58:54;44.9;;;27.4;;
74457;SDS011;62896;51.032;3.712;2023-02-15T13:02:13;44.9;;;27.4;;
74457;SDS011;62896;51.032;3.712;2023-02-15T13:05:33;44.9;;;27.4;;
74457;SDS011;62896;51.032;3.712;2023-02-15T13:08:53;44.9;;;27.4;;
74457;SDS011;62896;51.032;3.712;2023-02-15T13:12:15;44.9;;;27.4;;
74457;SDS011;62896;51.032;3.712;2023-02-15T13:15:34;44.9;;;27.4;;
74457;SDS011;62896;51.032;3.712;2023-02-15T13:18:52;42.6;;;26.3;;
74457;SDS011;62896;51.032;3.712;2023-02-15T13:22:13;42.6;;;26.3;;
74457;SDS011;62896;51.032;3.712;2023-02-15T13:25:35;42.6;;;26.3;;
74457;SDS011;62896;51.032;3.712;2023-02-15T13:28:53;42.6;;;26.3;;
74457;SDS011;62896;51.032;3.712;2023-02-15T13:32:16;42.6;;;26.3;;
74457;SDS011;62896;51.032;3.712;2023-02-15T13:35:36;42.6;;;26.3;;
74457;SDS011;62896;51.032;3.712;2023-02-15T13:38:56;42.6;;;26.3;;
74457;SDS011;62896;51.032;3.712;2023-02-15T13:42:15;42.6;;;26.9;;
74457;SDS011;62896;51.032;3.712;2023-02-15T13:45:35;42.6;;;26.9;;
74457;SDS011;62896;51.032;3.712;2023-02-15T13:48:56;42.6;;;26.9;;
74457;SDS011;62896;51.032;3.712;2023-02-15T13:52:16;42.6;;;26.9;;
74457;SDS011;62896;51.032;3.712;2023-02-15T13:55:35;42.6;;;26.9;;
74457;SDS011;62896;51.032;3.712;2023-02-15T13:58:57;42.6;;;26.9;;
74457;SDS011;62896;51.032;3.712;2023-02-15T14:02:27;42.6;;;26.9;;
74457;SDS011;62896;51.032;3.712;2023-02-15T14:05:36;42.6;;;26.9;;
74457;SDS011;62896;51.032;3.712;2023-02-15T14:08:56;38.8;;;26.7;;
74457;SDS011;62896;51.032;3.712;2023-02-15T14:12:18;38.8;;;26.7;;
74457;SDS011;62896;51.032;3.712;2023-02-15T14:15:34;38.8;;;26.7;;
74457;SDS011;62896;51.032;3.712;2023-02-15T14:18:54;38.8;;;26.7;;
74457;SDS011;62896;51.032;3.712;2023-02-15T14:22:15;38.8;;;26.7;;
74457;SDS011;62896;51.032;3.712;2023-02-15T14:25:34;38.8;;;26.7;;
74457;SDS011;62896;51.032;3.712;2023-02-15T14:28:54;38.8;;;26.7;;
74457;SDS011;62896;51.032;3.712;2023-02-15T14:32:13;37.5;;;25.3;;
74457;SDS011;62896;51.032;3.712;2023-02-15T14:35:32;37.5;;;25.3;;
74457;SDS011;62896;51.032;3.712;2023-02-15T14:38:56;37.5;;;25.3;;
74457;SDS011;62896;51.032;3.712;2023-02-15T14:42:14;37.5;;;25.3;;
74457;SDS011;62896;51.032;3.712;2023-02-15T14:45:34;37.5;;;25.3;;
74457;SDS011;62896;51.032;3.712;2023-02-15T14:48:53;37.5;;;25.3;;
74457;SDS011;62896;51.032;3.712;2023-02-15T14:52:12;37.5;;;25.3;;
74457;SDS011;62896;51.032;3.712;2023-02-15T14:55:34;37.5;;;25.3;;
74457;SDS011;62896;51.032;3.712;2023-02-15T14:58:56;39.7;;;25.5;;
74457;SDS011;62896;51.032;3.712;2023-02-15T15:02:13;39.7;;;25.5;;
74457;SDS011;62896;51.032;3.712;2023-02-15T15:05:33;39.7;;;25.5;;
74457;SDS011;62896;51.032;3.712;2023-02-15T15:08:53;39.7;;;25.5;;
74457;SDS011;62896;51.032;3.712;2023-02-15T15:12:14;39.7;;;25.5;;
74457;SDS011;62896;51.032;3.712;2023-02-15T15:15:33;39.7;;;25.5;;
74457;SDS011;62896;51.032;3.712;2023-02-15T15:18:52;39.7;;;25.5;;
74457;SDS011;62896;51.032;3.712;2023-02-15T15:22:17;41.4;;;25.8;;
74457;SDS011;62896;51.032;3.712;2023-02-15T15:25:40;41.4;;;25.8;;
74457;SDS011;62896;51.032;3.712;2023-02-15T15:28:53;41.4;;;25.8;;
74457;SDS011;62896;51.032;3.712;2023-02-15T15:32:12;41.4;;;25.8;;
74457;SDS011;62896;51.032;3.712;2023-02-15T15:35:33;41.4;;;25.8;;
74457;SDS011;62896;51.032;3.712;2023-02-15T15:38:54;41.4;;;25.8;;
74457;SDS011;62896;51.032;3.712;2023-02-15T15:42:13;41.4;;;25.8;;
74457;SDS011;62896;51.032;3.712;2023-02-15T15:45:43;41.4;;;25.8;;
74457;SDS011;62896;51.032;3.712;2023-02-15T15:48:52;36.5;;;24.7;;
74457;SDS011;62896;51.032;3.712;2023-02-15T15:52:13;36.5;;;24.7;;
74457;SDS011;62896;51.032;3.712;2023-02-15T15:55:33;36.5;;;24.7;;
74457;SDS011;62896;51.032;3.712;2023-02-15T15:58:54;36.5;;;24.7;;
74457;SDS011;62896;51.032;3.712;2023-02-15T16:02:13;36.5;;;24.7;;
74457;SDS011;62896;51.032;3.712;2023-02-15T16:05:34;36.5;;;24.7;;
74457;SDS011;62896;51.032;3.712;2023-02-15T16:08:52;36.5;;;24.7;;
74457;SDS011;62896;51.032;3.712;2023-02-15T16:12:13;46.7;;;27.6;;
74457;SDS011;62896;51.032;3.712;2023-02-15T16:15:34;46.7;;;27.6;;
74457;SDS011;62896;51.032;3.712;2023-02-15T16:18:52;46.7;;;27.6;;
74457;SDS011;62896;51.032;3.712;2023-02-15T16:22:13;46.7;;;27.6;;
74457;SDS011;62896;51.032;3.712;2023-02-15T16:25:35;46.7;;;27.6;;
74457;SDS011;62896;51.032;3.712;2023-02-15T16:28:53;46.7;;;27.6;;
74457;SDS011;62896;51.032;3.712;2023-02-15T16:32:16;46.7;;;27.6;;
74457;SDS011;62896;51.032;3.712;2023-02-15T16:35:33;46.7;;;27.6;;
74457;SDS011;62896;51.032;3.712;2023-02-15T16:39:07;41.2;;;25;;
74457;SDS011;62896;51.032;3.712;2023-02-15T16:42:12;41.2;;;25;;
74457;SDS011;62896;51.032;3.712;2023-02-15T16:45:32;41.2;;;25;;
74457;SDS011;62896;51.032;3.712;2023-02-15T16:48:53;41.2;;;25;;
74457;SDS011;62896;51.032;3.712;2023-02-15T16:52:14;41.2;;;25;;
74457;SDS011;62896;51.032;3.712;2023-02-15T16:55:34;41.2;;;25;;
74457;SDS011;62896;51.032;3.712;2023-02-15T16:58:53;41.2;;;25;;
74457;SDS011;62896;51.032;3.712;2023-02-15T17:02:14;47.7;;;26.9;;
74457;SDS011;62896;51.032;3.712;2023-02-15T17:05:33;47.7;;;26.9;;
74457;SDS011;62896;51.032;3.712;2023-02-15T17:08:53;47.7;;;26.9;;
74457;SDS011;62896;51.032;3.712;2023-02-15T17:12:12;47.7;;;26.9;;
74457;SDS011;62896;51.032;3.712;2023-02-15T17:15:33;47.7;;;26.9;;
74457;SDS011;62896;51.032;3.712;2023-02-15T17:18:52;47.7;;;26.9;;
74457;SDS011;62896;51.032;3.712;2023-02-15T17:22:16;47.7;;;26.9;;
74457;SDS011;62896;51.032;3.712;2023-02-15T17:25:34;47.7;;;26.9;;
74457;SDS011;62896;51.032;3.712;2023-02-15T17:28:53;46.6;;;27.8;;
74457;SDS011;62896;51.032;3.712;2023-02-15T17:32:14;46.6;;;27.8;;
74457;SDS011;62896;51.032;3.712;2023-02-15T17:35:33;46.6;;;27.8;;
74457;SDS011;62896;51.032;3.712;2023-02-15T17:38:59;46.6;;;27.8;;
74457;SDS011;62896;51.032;3.712;2023-02-15T17:42:13;46.6;;;27.8;;
74457;SDS011;62896;51.032;3.712;2023-02-15T17:45:33;46.6;;;27.8;;
74457;SDS011;62896;51.032;3.712;2023-02-15T17:48:53;46.6;;;27.8;;
74457;SDS011;62896;51.032;3.712;2023-02-15T17:52:13;44.9;;;26.6;;
74457;SDS011;62896;51.032;3.712;2023-02-15T17:55:32;44.9;;;26.6;;
74457;SDS011;62896;51.032;3.712;2023-02-15T17:58:52;44.9;;;26.6;;
74457;SDS011;62896;51.032;3.712;2023-02-15T18:02:12;44.9;;;26.6;;
74457;SDS011;62896;51.032;3.712;2023-02-15T18:05:33;44.9;;;26.6;;
74457;SDS011;62896;51.032;3.712;2023-02-15T18:08:52;44.9;;;26.6;;
74457;SDS011;62896;51.032;3.712;2023-02-15T18:12:17;44.9;;;26.6;;
74457;SDS011;62896;51.032;3.712;2023-02-15T18:15:33;44.9;;;26.6;;
74457;SDS011;62896;51.032;3.712;2023-02-15T18:18:52;44.7;;;26.7;;
74457;SDS011;62896;51.032;3.712;2023-02-15T18:22:13;44.7;;;26.7;;
74457;SDS011;62896;51.032;3.712;2023-02-15T18:25:32;44.7;;;26.7;;
74457;SDS011;62896;51.032;3.712;2023-02-15T18:28:53;44.7;;;26.7;;
74457;SDS011;62896;51.032;3.712;2023-02-15T18:32:14;44.7;;;26.7;;
74457;SDS011;62896;51.032;3.712;2023-02-15T18:35:32;44.7;;;26.7;;
74457;SDS011;62896;51.032;3.712;2023-02-15T18:38:53;44.7;;;26.7;;
74457;SDS011;62896;51.032;3.712;2023-02-15T18:42:18;52.4;;;29.6;;
74457;SDS011;62896;51.032;3.712;2023-02-15T18:45:32;52.4;;;29.6;;
74457;SDS011;62896;51.032;3.712;2023-02-15T18:48:52;52.4;;;29.6;;
74457;SDS011;62896;51.032;3.712;2023-02-15T18:52:13;52.4;;;29.6;;
74457;SDS011;62896;51.032;3.712;2023-02-15T18:55:33;52.4;;;29.6;;
74457;SDS011;62896;51.032;3.712;2023-02-15T18:58:52;52.4;;;29.6;;
74457;SDS011;62896;51.032;3.712;2023-02-15T19:02:13;52.4;;;29.6;;
74457;SDS011;62896;51.032;3.712;2023-02-15T19:05:32;52.4;;;29.6;;
74457;SDS011;62896;51.032;3.712;2023-02-15T19:08:53;49.9;;;31.1;;
74457;SDS011;62896;51.032;3.712;2023-02-15T19:12:13;49.9;;;31.1;;
74457;SDS011;62896;51.032;3.712;2023-02-15T19:15:33;49.9;;;31.1;;
74457;SDS011;62896;51.032;3.712;2023-02-15T19:18:53;49.9;;;31.1;;
74457;SDS011;62896;51.032;3.712;2023-02-15T19:22:13;49.9;;;31.1;;
74457;SDS011;62896;51.032;3.712;2023-02-15T19:25:33;49.9;;;31.1;;
74457;SDS011;62896;51.032;3.712;2023-02-15T19:28:53;49.9;;;31.1;;
74457;SDS011;62896;51.032;3.712;2023-02-15T19:32:13;56.3;;;33;;
74457;SDS011;62896;51.032;3.712;2023-02-15T19:35:33;56.3;;;33;;
74457;SDS011;62896;51.032;3.712;2023-02-15T19:38:53;56.3;;;33;;
74457;SDS011;62896;51.032;3.712;2023-02-15T19:42:13;56.3;;;33;;
74457;SDS011;62896;51.032;3.712;2023-02-15T19:45:33;56.3;;;33;;
74457;SDS011;62896;51.032;3.712;2023-02-15T19:48:53;56.3;;;33;;
74457;SDS011;62896;51.032;3.712;2023-02-15T19:52:13;56.3;;;33;;
74457;SDS011;62896;51.032;3.712;2023-02-15T19:55:33;56.3;;;33;;
74457;SDS011;62896;51.032;3.712;2023-02-15T19:58:53;56.5;;;32.9;;
74457;SDS011;62896;51.032;3.712;2023-02-15T20:02:13;56.5;;;32.9;;
74457;SDS011;62896;51.032;3.712;2023-02-15T20:05:33;56.5;;;32.9;;
74457;SDS011;62896;51.032;3.712;2023-02-15T20:08:53;56.5;;;32.9;;